createdAt,value
2022-10-10T00:02:35.349Z,9.20
2022-10-10T00:05:23.344Z,9.00
2022-10-10T00:08:12.607Z,10.87
2022-10-10T00:11:00.524Z,8.53
2022-10-10T00:13:48.802Z,7.53
2022-10-10T00:16:36.529Z,7.17
2022-10-10T00:19:24.505Z,7.67
2022-10-10T00:22:12.291Z,8.83
2022-10-10T00:25:01.338Z,9.30
2022-10-10T00:27:48.900Z,8.83
2022-10-10T00:30:37.029Z,11.03
2022-10-10T00:33:24.740Z,9.07
2022-10-10T00:36:13.181Z,12.87
2022-10-10T00:39:01.683Z,9.03
2022-10-10T00:41:50.862Z,8.40
2022-10-10T00:44:38.754Z,8.70
2022-10-10T00:47:26.760Z,7.27
2022-10-10T00:50:14.733Z,7.07
2022-10-10T00:53:03.038Z,7.93
2022-10-10T00:55:51.384Z,8.83
2022-10-10T00:58:44.395Z,11.17
2022-10-10T01:01:32.639Z,9.33
2022-10-10T01:04:37.944Z,7.73
2022-10-10T01:07:29.846Z,7.93
2022-10-10T01:10:20.613Z,7.30
2022-10-10T01:13:19.899Z,7.90
2022-10-10T01:16:19.136Z,8.13
2022-10-10T01:19:20.642Z,8.30
2022-10-10T01:22:22.749Z,6.67
2022-10-10T01:25:22.757Z,7.67
2022-10-10T01:28:23.776Z,10.60
2022-10-10T01:31:15.044Z,7.80
2022-10-10T01:34:08.624Z,8.27
2022-10-10T01:37:01.962Z,11.20
2022-10-10T01:39:57.597Z,7.33
2022-10-10T01:42:51.111Z,8.83
2022-10-10T01:45:45.225Z,10.37
2022-10-10T01:48:33.663Z,9.03
2022-10-10T01:51:36.095Z,9.53
2022-10-10T01:54:41.415Z,10.80
2022-10-10T01:57:37.368Z,11.03
2022-10-10T02:00:25.206Z,10.40
2022-10-10T02:03:18.294Z,11.03
2022-10-10T02:06:13.450Z,13.80
2022-10-10T02:09:05.424Z,10.03
2022-10-10T02:11:54.605Z,11.20
2022-10-10T02:14:45.971Z,10.73
2022-10-10T02:17:37.245Z,16.67
2022-10-10T02:20:28.416Z,9.00
2022-10-10T02:23:19.069Z,8.83
2022-10-10T02:26:07.366Z,8.90
2022-10-10T02:28:58.737Z,10.50
2022-10-10T02:31:55.121Z,8.20
2022-10-10T02:34:45.967Z,8.90
2022-10-10T02:37:37.186Z,8.97
2022-10-10T02:40:28.533Z,9.20
2022-10-10T02:43:17.961Z,8.93
2022-10-10T02:46:09.595Z,10.47
2022-10-10T02:48:57.304Z,10.13
2022-10-10T02:51:45.594Z,9.97
2022-10-10T02:54:34.764Z,11.10
2022-10-10T02:57:22.709Z,12.23
2022-10-10T03:00:11.213Z,10.30
2022-10-10T03:02:58.844Z,12.90
2022-10-10T03:05:47.107Z,14.17
2022-10-10T03:08:35.044Z,12.20
2022-10-10T03:11:24.103Z,13.33
2022-10-10T03:14:12.042Z,17.47
2022-10-10T03:16:59.669Z,14.77
2022-10-10T03:19:47.507Z,14.80
2022-10-10T03:22:35.178Z,12.63
2022-10-10T03:25:22.758Z,15.40
2022-10-10T03:28:12.209Z,13.67
2022-10-10T03:30:59.991Z,11.83
2022-10-10T03:33:47.582Z,18.30
2022-10-10T03:36:35.126Z,17.30
2022-10-10T03:39:22.945Z,14.53
2022-10-10T03:42:10.883Z,14.23
2022-10-10T03:45:00.156Z,14.87
2022-10-10T03:47:47.951Z,15.63
2022-10-10T03:50:36.217Z,21.00
2022-10-10T03:53:24.372Z,14.93
2022-10-10T03:56:12.121Z,15.63
2022-10-10T03:59:00.914Z,16.53
2022-10-10T04:01:50.100Z,19.03
2022-10-10T04:04:37.823Z,18.43
2022-10-10T04:07:25.659Z,18.87
2022-10-10T04:10:13.448Z,14.30
2022-10-10T04:13:01.366Z,15.00
2022-10-10T04:15:52.205Z,17.37
2022-10-10T04:18:41.652Z,18.87
2022-10-10T04:21:32.161Z,15.80
2022-10-10T04:24:20.200Z,15.83
2022-10-10T04:27:08.023Z,15.40
2022-10-10T04:29:56.317Z,21.33
2022-10-10T04:32:44.039Z,15.93
2022-10-10T04:35:33.137Z,16.07
2022-10-10T04:38:21.439Z,13.57
2022-10-10T04:41:08.965Z,14.90
2022-10-10T04:43:56.896Z,16.43
2022-10-10T04:46:44.607Z,18.50
2022-10-10T04:49:32.453Z,13.50
2022-10-10T04:52:21.537Z,15.13
2022-10-10T04:55:09.882Z,13.10
2022-10-10T04:57:57.498Z,13.83
2022-10-10T05:00:45.698Z,13.40
2022-10-10T05:03:36.227Z,13.90
2022-10-10T05:06:24.061Z,17.97
2022-10-10T05:09:13.552Z,15.90
2022-10-10T05:12:01.515Z,14.47
2022-10-10T05:14:49.365Z,13.57
2022-10-10T05:17:37.313Z,16.83
2022-10-10T05:20:25.029Z,12.20
2022-10-10T05:23:13.071Z,13.47
2022-10-10T05:26:02.553Z,13.47
2022-10-10T05:28:50.473Z,14.87
2022-10-10T05:31:38.197Z,16.47
2022-10-10T05:34:26.268Z,18.33
2022-10-10T05:37:13.780Z,14.47
2022-10-10T05:40:01.531Z,17.10
2022-10-10T05:42:51.341Z,15.37
2022-10-10T05:45:40.286Z,18.77
2022-10-10T05:48:28.077Z,15.40
2022-10-10T05:51:15.750Z,16.37
2022-10-10T05:54:05.217Z,22.27
2022-10-10T05:56:52.763Z,20.73
2022-10-10T05:59:42.229Z,24.93
2022-10-10T06:02:29.916Z,21.27
2022-10-10T06:05:17.920Z,26.43
2022-10-10T06:08:11.629Z,20.93
2022-10-10T06:11:03.927Z,27.10
2022-10-10T06:13:54.350Z,34.13
2022-10-10T06:16:46.054Z,26.43
2022-10-10T06:19:34.093Z,25.57
2022-10-10T06:22:22.050Z,32.90
2022-10-10T06:25:29.026Z,31.47
2022-10-10T06:28:18.304Z,26.50
2022-10-10T06:31:08.379Z,36.33
2022-10-10T06:33:57.308Z,24.27
2022-10-10T06:36:44.811Z,33.93
2022-10-10T06:39:33.486Z,26.00
2022-10-10T06:42:21.107Z,30.77
2022-10-10T06:45:17.951Z,27.90
2022-10-10T06:48:06.576Z,26.47
2022-10-10T06:51:00.057Z,28.00
2022-10-10T06:53:48.541Z,27.43
2022-10-10T06:56:36.114Z,27.30
2022-10-10T06:59:25.019Z,24.23
2022-10-10T07:02:15.133Z,25.67
2022-10-10T07:05:03.138Z,24.03
2022-10-10T07:07:53.564Z,25.40
2022-10-10T07:10:41.669Z,25.60
2022-10-10T07:13:29.761Z,25.07
2022-10-10T07:16:17.680Z,27.30
2022-10-10T07:19:06.266Z,23.73
2022-10-10T07:21:54.254Z,26.53
2022-10-10T07:24:43.594Z,24.80
2022-10-10T07:27:31.709Z,23.97
2022-10-10T07:30:20.075Z,26.00
2022-10-10T07:33:08.203Z,21.43
2022-10-10T07:35:56.131Z,19.63
2022-10-10T07:38:43.742Z,21.03
2022-10-10T07:41:32.907Z,18.10
2022-10-10T07:44:21.749Z,21.60
2022-10-10T07:47:09.528Z,15.75
2022-10-10T07:49:57.181Z,23.30
2022-10-10T07:52:44.843Z,20.15
2022-10-10T07:55:32.490Z,16.75
2022-10-10T07:58:21.393Z,20.55
2022-10-10T08:01:11.843Z,19.98
2022-10-10T08:03:59.752Z,18.20
2022-10-10T08:06:48.438Z,19.63
2022-10-10T08:09:36.381Z,13.98
2022-10-10T08:12:24.178Z,17.27
2022-10-10T08:15:13.609Z,13.48
2022-10-10T08:18:01.584Z,14.60
2022-10-10T08:20:49.520Z,13.32
2022-10-10T08:23:38.012Z,15.85
2022-10-10T08:26:26.060Z,14.68
2022-10-10T08:29:14.252Z,14.18
2022-10-10T08:32:03.606Z,12.40
2022-10-10T08:34:51.425Z,12.07
2022-10-10T08:37:39.065Z,14.68
2022-10-10T08:40:29.232Z,12.30
2022-10-10T08:43:23.431Z,10.90
2022-10-10T08:46:17.719Z,12.98
2022-10-10T08:49:18.903Z,12.32
2022-10-10T08:52:12.102Z,13.77
2022-10-10T08:55:02.017Z,11.68
2022-10-10T08:57:52.918Z,9.65
2022-10-10T09:00:46.405Z,9.82
2022-10-10T09:03:41.400Z,12.48
2022-10-10T09:06:42.041Z,15.45
2022-10-10T09:09:39.013Z,10.13
2022-10-10T09:12:35.285Z,9.60
2022-10-10T09:15:27.509Z,10.23
2022-10-10T09:18:23.817Z,9.25
2022-10-10T09:21:17.487Z,11.00
2022-10-10T09:24:12.005Z,12.07
2022-10-10T09:27:04.076Z,11.45
2022-10-10T09:29:55.925Z,8.70
2022-10-10T09:32:51.263Z,13.80
2022-10-10T09:35:42.236Z,9.90
2022-10-10T09:38:35.354Z,9.48
2022-10-10T09:41:29.814Z,9.57
2022-10-10T09:44:21.276Z,10.70
2022-10-10T09:47:11.467Z,10.48
2022-10-10T09:50:00.672Z,8.32
2022-10-10T09:52:49.722Z,7.15
2022-10-10T09:55:39.998Z,7.45
2022-10-10T09:58:35.066Z,8.82
2022-10-10T10:01:25.079Z,7.38
2022-10-10T10:04:27.020Z,7.75
2022-10-10T10:07:26.667Z,7.03
2022-10-10T10:10:21.869Z,8.13
2022-10-10T10:13:15.590Z,7.10
2022-10-10T10:16:11.353Z,7.72
2022-10-10T10:18:59.432Z,6.47
2022-10-10T10:21:52.699Z,9.30
2022-10-10T10:24:40.609Z,8.90
2022-10-10T10:27:30.261Z,8.27
2022-10-10T10:30:27.044Z,6.57
2022-10-10T10:33:42.526Z,6.47
2022-10-10T10:36:42.342Z,7.68
2022-10-10T10:39:44.368Z,6.85
2022-10-10T10:42:45.765Z,9.35
2022-10-10T10:45:44.842Z,6.05
2022-10-10T10:48:42.385Z,6.28
2022-10-10T10:51:51.278Z,6.68
2022-10-10T10:54:56.447Z,6.93
2022-10-10T10:58:37.252Z,7.35
2022-10-10T11:01:54.816Z,6.60
2022-10-10T11:05:22.509Z,7.80
2022-10-10T11:08:04.371Z,7.80
2022-10-10T11:11:00.699Z,6.55
2022-10-10T11:13:56.864Z,7.30
2022-10-10T11:16:49.612Z,6.82
2022-10-10T11:19:44.224Z,6.05
2022-10-10T11:22:36.729Z,6.20
2022-10-10T11:25:30.889Z,7.47
2022-10-10T11:28:23.693Z,6.50
2022-10-10T11:31:14.853Z,7.20
2022-10-10T11:34:08.253Z,7.40
2022-10-10T11:37:04.680Z,6.97
2022-10-10T11:39:56.839Z,5.57
2022-10-10T11:42:50.525Z,5.88
2022-10-10T11:45:45.653Z,7.35
2022-10-10T11:48:40.535Z,5.70
2022-10-10T11:51:42.328Z,6.40
2022-10-10T11:54:38.169Z,5.93
2022-10-10T11:57:34.024Z,7.45
2022-10-10T12:00:22.276Z,6.07
2022-10-10T12:03:10.707Z,6.07
2022-10-10T12:06:04.284Z,6.32
2022-10-10T12:08:58.204Z,5.90
2022-10-10T12:11:54.367Z,6.05
2022-10-10T12:14:48.274Z,6.35
2022-10-10T12:17:39.817Z,6.15
2022-10-10T12:20:35.793Z,5.82
2022-10-10T12:23:28.932Z,5.38
2022-10-10T12:26:21.673Z,7.25
2022-10-10T12:29:12.414Z,6.13
2022-10-10T12:32:24.955Z,7.13
2022-10-10T12:35:45.608Z,6.22
2022-10-10T12:38:33.502Z,5.65
2022-10-10T12:41:21.790Z,6.93
2022-10-10T12:44:23.701Z,5.82
2022-10-10T12:48:04.581Z,7.40
2022-10-10T12:50:58.577Z,6.90
2022-10-10T12:53:50.772Z,6.40
2022-10-10T12:56:41.969Z,8.48
2022-10-10T12:59:32.126Z,5.85
2022-10-10T13:02:23.590Z,6.05
2022-10-10T13:05:15.373Z,5.82
2022-10-10T13:08:06.120Z,6.30
2022-10-10T13:11:05.973Z,7.55
2022-10-10T13:13:55.522Z,6.35
2022-10-10T13:16:46.143Z,7.65
2022-10-10T13:19:43.623Z,6.13
2022-10-10T13:22:33.407Z,6.63
2022-10-10T13:25:21.588Z,6.68
2022-10-10T13:28:18.396Z,8.90
2022-10-10T13:31:11.663Z,6.47
2022-10-10T13:34:04.832Z,7.13
2022-10-10T13:36:56.286Z,7.20
2022-10-10T13:39:44.544Z,5.57
2022-10-10T13:42:35.720Z,6.43
2022-10-10T13:45:48.510Z,8.30
2022-10-10T13:48:41.134Z,6.50
2022-10-10T13:51:45.703Z,7.22
2022-10-10T13:54:45.066Z,6.95
2022-10-10T13:57:33.331Z,7.35
2022-10-10T14:00:23.420Z,6.72
2022-10-10T14:03:17.357Z,7.32
2022-10-10T14:06:05.202Z,6.53
2022-10-10T14:08:56.598Z,7.07
2022-10-10T14:11:44.918Z,7.15
2022-10-10T14:14:41.819Z,7.57
2022-10-10T14:17:30.120Z,6.75
2022-10-10T14:20:18.185Z,8.55
2022-10-10T14:23:06.253Z,12.32
2022-10-10T14:25:55.505Z,7.55
2022-10-10T14:28:44.062Z,10.05
2022-10-10T14:51:33.682Z,8.18
2022-10-10T14:54:19.368Z,6.35
2022-10-10T14:57:10.197Z,9.38
2022-10-10T15:00:00.416Z,5.80
2022-10-10T15:02:48.852Z,6.85
2022-10-10T15:05:37.549Z,6.38
2022-10-10T15:08:25.353Z,6.22
2022-10-10T15:11:17.691Z,6.78
2022-10-10T15:14:05.330Z,5.50
2022-10-10T15:16:54.543Z,5.43
2022-10-10T15:22:30.495Z,5.32
2022-10-10T15:25:18.474Z,6.00
2022-10-10T15:28:07.208Z,8.32
2022-10-10T15:30:55.581Z,6.05
2022-10-10T15:33:45.015Z,6.43
2022-10-10T15:36:33.061Z,5.10
2022-10-10T15:39:20.709Z,5.10
2022-10-10T15:42:14.990Z,7.85
2022-10-10T15:45:06.001Z,8.15
2022-10-10T15:47:54.250Z,4.65
2022-10-10T15:50:44.566Z,5.60
2022-10-10T15:53:32.599Z,5.90
2022-10-10T15:56:20.552Z,5.22
2022-10-10T15:59:09.801Z,5.95
2022-10-10T16:01:57.618Z,5.30
2022-10-10T16:04:46.294Z,5.57
2022-10-10T16:07:42.121Z,7.15
2022-10-10T16:10:38.670Z,6.10
2022-10-10T16:13:26.475Z,5.90
2022-10-10T16:16:14.036Z,8.23
2022-10-10T16:19:01.888Z,8.60
2022-10-10T16:21:49.751Z,8.80
2022-10-10T16:24:39.049Z,6.68
2022-10-10T16:27:27.930Z,7.53
2022-10-10T16:30:16.568Z,7.50
2022-10-10T16:33:04.724Z,8.60
2022-10-10T16:35:52.356Z,8.98
2022-10-10T16:38:40.538Z,9.63
2022-10-10T16:41:48.737Z,8.02
2022-10-10T16:44:37.533Z,8.18
2022-10-10T16:47:25.403Z,7.53
2022-10-10T16:50:13.713Z,7.22
2022-10-10T16:53:01.563Z,11.63
2022-10-10T16:55:49.348Z,8.00
2022-10-10T16:58:39.634Z,8.82
2022-10-10T17:01:28.302Z,7.72
2022-10-10T17:04:16.214Z,10.60
2022-10-10T17:07:04.002Z,8.55
2022-10-10T17:09:51.425Z,8.82
2022-10-10T17:12:39.214Z,9.50
2022-10-10T17:15:28.772Z,10.00
2022-10-10T17:18:17.641Z,10.23
2022-10-10T17:21:09.401Z,11.00
2022-10-10T17:23:57.373Z,12.90
2022-10-10T17:26:45.161Z,12.55
2022-10-10T17:29:32.664Z,15.77
2022-10-10T17:32:22.276Z,15.50
2022-10-10T17:35:10.342Z,14.65
2022-10-10T17:37:58.295Z,18.30
2022-10-10T17:40:46.414Z,18.52
2022-10-10T17:43:34.897Z,15.07
2022-10-10T17:46:40.893Z,12.35
2022-10-10T17:49:30.409Z,11.30
2022-10-10T17:52:21.202Z,11.65
2022-10-10T17:55:09.909Z,13.18
2022-10-10T17:57:57.787Z,14.60
2022-10-10T18:00:45.528Z,20.45
2022-10-10T18:03:33.345Z,16.45
2022-10-10T18:06:24.332Z,18.10
2022-10-10T18:09:11.745Z,22.58
2022-10-10T18:11:59.844Z,18.20
2022-10-10T18:14:47.833Z,17.15
2022-10-10T18:17:35.766Z,17.30
2022-10-10T18:20:25.317Z,17.90
2022-10-10T18:23:14.403Z,18.88
2022-10-10T18:26:02.295Z,18.95
2022-10-10T18:28:52.484Z,20.63
2022-10-10T18:31:40.511Z,20.33
2022-10-10T18:34:28.690Z,17.73
2022-10-10T18:37:16.401Z,17.05
2022-10-10T18:40:07.512Z,18.10
2022-10-10T18:42:55.278Z,17.15
2022-10-10T18:45:42.612Z,15.80
2022-10-10T18:48:31.174Z,18.17
2022-10-10T18:51:22.829Z,18.48
2022-10-10T18:54:13.870Z,13.82
2022-10-10T18:57:03.398Z,17.23
2022-10-10T18:59:51.343Z,14.90
2022-10-10T19:02:39.731Z,13.20
2022-10-10T19:05:27.488Z,13.93
2022-10-10T19:08:15.169Z,14.00
2022-10-10T19:11:04.215Z,11.93
2022-10-10T19:13:54.393Z,12.68
2022-10-10T19:16:43.294Z,10.77
2022-10-10T19:19:31.536Z,10.45
2022-10-10T19:22:19.656Z,12.85
2022-10-10T19:25:10.451Z,10.30
2022-10-10T19:27:58.659Z,9.23
2022-10-10T19:30:49.195Z,9.68
2022-10-10T19:33:37.173Z,10.57
2022-10-10T19:36:25.551Z,11.10
2022-10-10T19:39:13.431Z,9.95
2022-10-10T19:42:01.200Z,10.13
2022-10-10T19:44:48.815Z,10.23
2022-10-10T19:47:37.924Z,11.02
2022-10-10T19:50:26.059Z,11.30
2022-10-10T19:53:17.419Z,11.82
2022-10-10T19:56:07.832Z,11.85
2022-10-10T19:58:57.420Z,11.27
2022-10-10T20:01:45.337Z,12.13
2022-10-10T20:04:34.707Z,11.80
2022-10-10T20:07:22.353Z,11.77
2022-10-10T20:10:12.355Z,11.68
2022-10-10T20:13:00.270Z,11.25
2022-10-10T20:15:49.492Z,10.88
2022-10-10T20:18:39.031Z,11.45
2022-10-10T20:21:31.702Z,9.98
2022-10-10T20:24:19.731Z,12.27
2022-10-10T20:27:07.587Z,10.13
2022-10-10T20:29:55.390Z,12.63
2022-10-10T20:32:43.366Z,10.45
2022-10-10T20:35:30.974Z,12.57
2022-10-10T20:38:20.243Z,16.83
2022-10-10T20:41:09.248Z,10.15
2022-10-10T20:43:59.189Z,12.25
2022-10-10T20:46:47.267Z,12.70
2022-10-10T20:49:35.206Z,14.13
2022-10-10T20:52:22.801Z,14.65
2022-10-10T20:55:12.995Z,14.55
2022-10-10T20:58:00.929Z,16.73
2022-10-10T21:00:49.224Z,14.65
2022-10-10T21:03:37.440Z,14.32
2022-10-10T21:06:27.268Z,12.10
2022-10-10T21:09:16.108Z,17.23
2022-10-10T21:12:05.582Z,17.38
2022-10-10T21:14:53.295Z,13.52
2022-10-10T21:17:41.953Z,13.57
2022-10-10T21:20:29.717Z,15.05
2022-10-10T21:23:17.823Z,14.18
2022-10-10T21:26:06.918Z,12.93
2022-10-10T21:28:57.693Z,13.98
2022-10-10T21:31:45.706Z,13.52
2022-10-10T21:34:33.555Z,13.88
2022-10-10T21:37:21.485Z,12.20
2022-10-10T21:40:10.038Z,12.02
2022-10-10T21:42:58.110Z,12.13
2022-10-10T21:45:47.401Z,10.95
2022-10-10T21:48:35.301Z,14.25
2022-10-10T21:51:23.263Z,11.38
2022-10-10T21:54:11.701Z,11.50
2022-10-10T21:56:59.312Z,11.70
2022-10-10T21:59:47.363Z,12.68
2022-10-10T22:02:36.770Z,12.80
2022-10-10T22:05:24.935Z,11.00
2022-10-10T22:08:13.226Z,10.60
2022-10-10T22:11:05.414Z,10.75
2022-10-10T22:13:53.093Z,11.15
2022-10-10T22:16:40.994Z,11.05
2022-10-10T22:19:30.103Z,13.15
2022-10-10T22:22:17.638Z,10.73
2022-10-10T22:25:06.584Z,9.88
2022-10-10T22:27:57.259Z,10.98
2022-10-10T22:30:45.499Z,10.73
2022-10-10T22:33:33.067Z,12.40
2022-10-10T22:36:22.363Z,11.48
2022-10-10T22:39:11.185Z,10.73
2022-10-10T22:41:59.429Z,13.35
2022-10-10T22:44:50.061Z,12.43
2022-10-10T22:47:37.741Z,12.02
2022-10-10T22:50:25.967Z,12.80
2022-10-10T22:53:15.402Z,19.48
2022-10-10T22:56:03.868Z,17.52
2022-10-10T22:58:52.271Z,19.35
2022-10-10T23:01:40.139Z,17.38
2022-10-10T23:04:27.805Z,18.02
2022-10-10T23:07:20.128Z,19.65
2022-10-10T23:10:10.558Z,21.50
2022-10-10T23:12:58.535Z,20.77
2022-10-10T23:15:46.526Z,20.60
2022-10-10T23:18:34.084Z,19.00
2022-10-10T23:21:21.996Z,21.20
2022-10-10T23:24:09.939Z,19.17
2022-10-10T23:26:58.960Z,24.65
2022-10-10T23:29:46.645Z,20.67
2022-10-10T23:32:34.738Z,20.55
2022-10-10T23:35:22.348Z,22.50
2022-10-10T23:38:10.225Z,21.38
2022-10-10T23:40:58.341Z,18.00
2022-10-10T23:43:47.577Z,21.35
2022-10-10T23:46:35.709Z,19.35
2022-10-10T23:49:23.389Z,20.00
2022-10-10T23:52:06.168Z,19.42
2022-10-10T23:54:48.195Z,17.33
2022-10-10T23:57:36.081Z,20.17
